sensor_id;sensor_type;location;lat;lon;timestamp;pressure;altitude;pressure_sealevel;temperature;humidity
23733;BME280;12047;53.450;-2.286;2023-02-26T00:04:12;102300.28;;;9.33;100.00
23733;BME280;12047;53.450;-2.286;2023-02-26T00:09:16;102311.94;;;10.16;100.00
23733;BME280;12047;53.450;-2.286;2023-02-26T00:14:17;102318.03;;;10.32;100.00
23733;BME280;12047;53.450;-2.286;2023-02-26T00:19:21;102319.44;;;10.38;100.00
23733;BME280;12047;53.450;-2.286;2023-02-26T00:24:22;102320.75;;;9.74;100.00
23733;BME280;12047;53.450;-2.286;2023-02-26T00:29:25;102323.44;;;9.88;100.00
23733;BME280;12047;53.450;-2.286;2023-02-26T00:34:26;102324.47;;;9.41;100.00
23733;BME280;12047;53.450;-2.286;2023-02-26T00:40:13;102322.28;;;9.64;100.00
23733;BME280;12047;53.450;-2.286;2023-02-26T00:45:20;102332.78;;;10.36;100.00
23733;BME280;12047;53.450;-2.286;2023-02-26T00:50:25;102334.50;;;10.37;100.00
23733;BME280;12047;53.450;-2.286;2023-02-26T00:55:29;102335.63;;;10.33;100.00
23733;BME280;12047;53.450;-2.286;2023-02-26T01:00:33;102340.34;;;10.83;100.00
23733;BME280;12047;53.450;-2.286;2023-02-26T01:05:44;102343.31;;;10.91;99.69
23733;BME280;12047;53.450;-2.286;2023-02-26T01:10:55;102358.81;;;10.85;99.57
23733;BME280;12047;53.450;-2.286;2023-02-26T01:16:04;102350.06;;;10.42;100.00
23733;BME280;12047;53.450;-2.286;2023-02-26T01:21:15;102349.47;;;10.65;99.68
23733;BME280;12047;53.450;-2.286;2023-02-26T01:26:26;102348.22;;;10.30;100.00
23733;BME280;12047;53.450;-2.286;2023-02-26T01:31:57;102348.56;;;10.09;100.00
23733;BME280;12047;53.450;-2.286;2023-02-26T01:37:09;102356.88;;;10.17;100.00
23733;BME280;12047;53.450;-2.286;2023-02-26T01:42:34;102364.75;;;10.47;99.02
23733;BME280;12047;53.450;-2.286;2023-02-26T01:47:48;102363.31;;;9.99;100.00
23733;BME280;12047;53.450;-2.286;2023-02-26T01:53:15;102382.09;;;10.25;100.00
23733;BME280;12047;53.450;-2.286;2023-02-26T01:58:36;102377.19;;;10.33;100.00
23733;BME280;12047;53.450;-2.286;2023-02-26T02:03:43;102381.97;;;9.98;100.00
23733;BME280;12047;53.450;-2.286;2023-02-26T02:08:47;102385.66;;;10.09;100.00
23733;BME280;12047;53.450;-2.286;2023-02-26T02:14:11;102379.41;;;9.96;100.00
23733;BME280;12047;53.450;-2.286;2023-02-26T02:36:06;102396.31;;;9.79;100.00
23733;BME280;12047;53.450;-2.286;2023-02-26T02:41:21;102387.97;;;9.41;100.00
23733;BME280;12047;53.450;-2.286;2023-02-26T02:46:27;102393.53;;;9.67;100.00
23733;BME280;12047;53.450;-2.286;2023-02-26T02:51:40;102388.41;;;9.49;100.00
23733;BME280;12047;53.450;-2.286;2023-02-26T02:57:01;102393.69;;;9.04;100.00
23733;BME280;12047;53.450;-2.286;2023-02-26T03:02:24;102411.19;;;9.52;100.00
23733;BME280;12047;53.450;-2.286;2023-02-26T03:07:27;102414.94;;;9.48;100.00
23733;BME280;12047;53.450;-2.286;2023-02-26T03:12:31;102398.81;;;9.67;100.00
23733;BME280;12047;53.450;-2.286;2023-02-26T03:17:54;102403.81;;;9.57;100.00
23733;BME280;12047;53.450;-2.286;2023-02-26T03:29:18;102406.41;;;9.43;100.00
23733;BME280;12047;53.450;-2.286;2023-02-26T03:34:07;102409.19;;;9.26;100.00
23733;BME280;12047;53.450;-2.286;2023-02-26T03:39:22;102413.88;;;9.20;100.00
23733;BME280;12047;53.450;-2.286;2023-02-26T03:44:31;102396.19;;;9.67;100.00
23733;BME280;12047;53.450;-2.286;2023-02-26T03:49:47;102403.50;;;9.47;100.00
23733;BME280;12047;53.450;-2.286;2023-02-26T03:54:56;102412.91;;;10.11;100.00
23733;BME280;12047;53.450;-2.286;2023-02-26T04:00:05;102417.16;;;9.55;100.00
23733;BME280;12047;53.450;-2.286;2023-02-26T04:05:36;102426.44;;;10.07;100.00
23733;BME280;12047;53.450;-2.286;2023-02-26T04:10:55;102441.06;;;10.98;100.00
23733;BME280;12047;53.450;-2.286;2023-02-26T04:16:06;102442.38;;;10.64;100.00
23733;BME280;12047;53.450;-2.286;2023-02-26T04:21:11;102455.53;;;10.51;100.00
23733;BME280;12047;53.450;-2.286;2023-02-26T04:26:11;102454.59;;;10.38;100.00
23733;BME280;12047;53.450;-2.286;2023-02-26T04:31:12;102452.16;;;10.05;100.00
23733;BME280;12047;53.450;-2.286;2023-02-26T04:36:13;102464.81;;;10.30;100.00
23733;BME280;12047;53.450;-2.286;2023-02-26T04:41:14;102465.34;;;10.20;100.00
23733;BME280;12047;53.450;-2.286;2023-02-26T04:46:15;102467.16;;;10.20;100.00
23733;BME280;12047;53.450;-2.286;2023-02-26T04:51:16;102473.91;;;10.54;100.00
23733;BME280;12047;53.450;-2.286;2023-02-26T04:56:17;102473.06;;;9.49;100.00
23733;BME280;12047;53.450;-2.286;2023-02-26T05:01:18;102478.63;;;9.61;100.00
23733;BME280;12047;53.450;-2.286;2023-02-26T05:06:18;102497.94;;;9.77;100.00
23733;BME280;12047;53.450;-2.286;2023-02-26T05:11:24;102489.25;;;9.75;100.00
23733;BME280;12047;53.450;-2.286;2023-02-26T05:16:32;102490.44;;;9.99;100.00
23733;BME280;12047;53.450;-2.286;2023-02-26T05:21:36;102495.88;;;10.12;100.00
23733;BME280;12047;53.450;-2.286;2023-02-26T05:26:39;102505.97;;;9.75;100.00
23733;BME280;12047;53.450;-2.286;2023-02-26T05:31:40;102505.44;;;9.54;100.00
23733;BME280;12047;53.450;-2.286;2023-02-26T05:36:43;102513.06;;;9.75;100.00
23733;BME280;12047;53.450;-2.286;2023-02-26T05:41:44;102500.41;;;10.10;100.00
23733;BME280;12047;53.450;-2.286;2023-02-26T05:46:45;102510.09;;;9.95;100.00
23733;BME280;12047;53.450;-2.286;2023-02-26T05:51:46;102518.28;;;10.06;100.00
23733;BME280;12047;53.450;-2.286;2023-02-26T05:56:55;102527.84;;;10.39;100.00
23733;BME280;12047;53.450;-2.286;2023-02-26T06:02:05;102528.78;;;10.38;100.00
23733;BME280;12047;53.450;-2.286;2023-02-26T06:07:06;102532.88;;;10.13;100.00
23733;BME280;12047;53.450;-2.286;2023-02-26T06:12:09;102538.03;;;10.01;100.00
23733;BME280;12047;53.450;-2.286;2023-02-26T06:17:18;102542.16;;;9.90;100.00
23733;BME280;12047;53.450;-2.286;2023-02-26T06:22:21;102550.94;;;9.91;100.00
23733;BME280;12047;53.450;-2.286;2023-02-26T06:27:22;102554.84;;;9.54;100.00
23733;BME280;12047;53.450;-2.286;2023-02-26T06:32:42;102561.00;;;10.00;100.00
23733;BME280;12047;53.450;-2.286;2023-02-26T06:37:45;102573.13;;;10.20;100.00
23733;BME280;12047;53.450;-2.286;2023-02-26T06:42:46;102572.84;;;9.79;100.00
23733;BME280;12047;53.450;-2.286;2023-02-26T06:47:50;102566.25;;;10.16;100.00
23733;BME280;12047;53.450;-2.286;2023-02-26T06:52:54;102578.31;;;9.76;100.00
23733;BME280;12047;53.450;-2.286;2023-02-26T06:57:58;102572.69;;;9.82;100.00
23733;BME280;12047;53.450;-2.286;2023-02-26T07:02:59;102575.97;;;9.40;100.00
23733;BME280;12047;53.450;-2.286;2023-02-26T07:07:59;102572.41;;;10.16;100.00
23733;BME280;12047;53.450;-2.286;2023-02-26T07:13:00;102576.28;;;10.41;100.00
23733;BME280;12047;53.450;-2.286;2023-02-26T07:18:01;102584.91;;;10.44;100.00
23733;BME280;12047;53.450;-2.286;2023-02-26T07:28:58;102585.31;;;10.67;100.00
23733;BME280;12047;53.450;-2.286;2023-02-26T07:34:06;102588.09;;;10.79;100.00
23733;BME280;12047;53.450;-2.286;2023-02-26T07:39:09;102606.94;;;10.89;100.00
23733;BME280;12047;53.450;-2.286;2023-02-26T07:44:18;102619.19;;;11.06;100.00
23733;BME280;12047;53.450;-2.286;2023-02-26T07:49:19;102620.66;;;10.07;100.00
23733;BME280;12047;53.450;-2.286;2023-02-26T07:54:36;102618.41;;;10.31;100.00
23733;BME280;12047;53.450;-2.286;2023-02-26T07:59:51;102619.28;;;10.46;100.00
23733;BME280;12047;53.450;-2.286;2023-02-26T08:05:05;102633.22;;;10.04;100.00
23733;BME280;12047;53.450;-2.286;2023-02-26T08:10:06;102635.78;;;10.51;100.00
23733;BME280;12047;53.450;-2.286;2023-02-26T08:15:36;102643.22;;;10.44;100.00
23733;BME280;12047;53.450;-2.286;2023-02-26T08:20:57;102637.66;;;10.49;100.00
23733;BME280;12047;53.450;-2.286;2023-02-26T08:26:08;102647.94;;;10.69;100.00
23733;BME280;12047;53.450;-2.286;2023-02-26T08:31:13;102648.63;;;10.87;100.00
23733;BME280;12047;53.450;-2.286;2023-02-26T08:36:23;102652.84;;;10.61;100.00
23733;BME280;12047;53.450;-2.286;2023-02-26T08:41:29;102676.78;;;11.04;100.00
23733;BME280;12047;53.450;-2.286;2023-02-26T08:51:36;102680.56;;;11.14;100.00
23733;BME280;12047;53.450;-2.286;2023-02-26T08:56:39;102687.03;;;10.66;100.00
23733;BME280;12047;53.450;-2.286;2023-02-26T09:01:50;102700.94;;;10.55;100.00
23733;BME280;12047;53.450;-2.286;2023-02-26T09:06:51;102689.88;;;11.21;100.00
23733;BME280;12047;53.450;-2.286;2023-02-26T09:11:55;102707.53;;;11.36;100.00
23733;BME280;12047;53.450;-2.286;2023-02-26T09:17:05;102707.28;;;10.97;100.00
23733;BME280;12047;53.450;-2.286;2023-02-26T09:22:08;102715.19;;;11.27;100.00
23733;BME280;12047;53.450;-2.286;2023-02-26T09:27:22;102714.91;;;11.45;100.00
23733;BME280;12047;53.450;-2.286;2023-02-26T09:32:25;102717.63;;;11.72;100.00
23733;BME280;12047;53.450;-2.286;2023-02-26T09:37:35;102728.41;;;12.39;100.00
23733;BME280;12047;53.450;-2.286;2023-02-26T09:43:27;102726.56;;;12.53;100.00
23733;BME280;12047;53.450;-2.286;2023-02-26T09:48:27;102728.28;;;12.13;100.00
23733;BME280;12047;53.450;-2.286;2023-02-26T09:54:12;102723.63;;;11.47;100.00
23733;BME280;12047;53.450;-2.286;2023-02-26T10:16:23;102757.84;;;12.09;98.89
23733;BME280;12047;53.450;-2.286;2023-02-26T10:21:45;102771.13;;;12.63;98.10
23733;BME280;12047;53.450;-2.286;2023-02-26T10:27:10;102774.25;;;12.69;95.92
23733;BME280;12047;53.450;-2.286;2023-02-26T10:32:26;102784.00;;;13.22;93.58
23733;BME280;12047;53.450;-2.286;2023-02-26T10:48:30;102794.38;;;12.46;92.53
23733;BME280;12047;53.450;-2.286;2023-02-26T10:53:38;102793.81;;;12.55;90.99
23733;BME280;12047;53.450;-2.286;2023-02-26T10:58:55;102791.41;;;13.05;88.48
23733;BME280;12047;53.450;-2.286;2023-02-26T11:04:48;102791.06;;;13.36;87.39
23733;BME280;12047;53.450;-2.286;2023-02-26T11:09:56;102806.09;;;12.71;88.14
23733;BME280;12047;53.450;-2.286;2023-02-26T11:14:59;102796.94;;;12.75;85.46
23733;BME280;12047;53.450;-2.286;2023-02-26T11:20:28;102803.53;;;12.69;84.63
23733;BME280;12047;53.450;-2.286;2023-02-26T11:25:31;102814.03;;;13.88;79.75
23733;BME280;12047;53.450;-2.286;2023-02-26T11:30:36;102815.75;;;12.59;83.27
23733;BME280;12047;53.450;-2.286;2023-02-26T11:35:47;102813.34;;;12.27;82.37
23733;BME280;12047;53.450;-2.286;2023-02-26T11:41:07;102820.59;;;12.38;83.96
23733;BME280;12047;53.450;-2.286;2023-02-26T11:46:12;102824.00;;;12.81;85.33
23733;BME280;12047;53.450;-2.286;2023-02-26T11:51:30;102823.34;;;12.78;85.66
23733;BME280;12047;53.450;-2.286;2023-02-26T11:56:38;102827.47;;;13.48;85.74
23733;BME280;12047;53.450;-2.286;2023-02-26T12:01:43;102833.22;;;13.30;84.85
23733;BME280;12047;53.450;-2.286;2023-02-26T12:06:52;102834.09;;;13.55;83.53
23733;BME280;12047;53.450;-2.286;2023-02-26T12:22:26;102844.06;;;13.26;80.80
23733;BME280;12047;53.450;-2.286;2023-02-26T12:38:43;102825.97;;;13.95;77.59
23733;BME280;12047;53.450;-2.286;2023-02-26T12:44:21;102837.28;;;13.73;78.15
23733;BME280;12047;53.450;-2.286;2023-02-26T13:19:28;102840.44;;;13.27;76.17
23733;BME280;12047;53.450;-2.286;2023-02-26T13:25:22;102828.97;;;13.52;77.49
23733;BME280;12047;53.450;-2.286;2023-02-26T13:30:43;102826.34;;;14.27;76.72
23733;BME280;12047;53.450;-2.286;2023-02-26T13:36:15;102832.47;;;14.53;76.55
23733;BME280;12047;53.450;-2.286;2023-02-26T13:41:33;102834.19;;;14.54;77.10
23733;BME280;12047;53.450;-2.286;2023-02-26T13:46:48;102835.56;;;13.72;74.30
23733;BME280;12047;53.450;-2.286;2023-02-26T13:58:33;102841.63;;;13.87;76.10
23733;BME280;12047;53.450;-2.286;2023-02-26T14:20:46;102831.91;;;14.11;77.01
23733;BME280;12047;53.450;-2.286;2023-02-26T14:25:49;102836.00;;;13.79;76.76
23733;BME280;12047;53.450;-2.286;2023-02-26T14:32:04;102837.50;;;13.83;79.97
23733;BME280;12047;53.450;-2.286;2023-02-26T15:12:45;102868.94;;;13.65;78.93
23733;BME280;12047;53.450;-2.286;2023-02-26T15:30:02;102864.84;;;14.72;77.50
23733;BME280;12047;53.450;-2.286;2023-02-26T15:58:20;102872.19;;;14.45;71.86
23733;BME280;12047;53.450;-2.286;2023-02-26T16:03:56;102879.06;;;13.60;72.67
23733;BME280;12047;53.450;-2.286;2023-02-26T16:09:00;102865.84;;;14.09;70.52
23733;BME280;12047;53.450;-2.286;2023-02-26T16:14:24;102871.59;;;14.03;71.70
23733;BME280;12047;53.450;-2.286;2023-02-26T16:19:34;102880.34;;;13.54;72.47
23733;BME280;12047;53.450;-2.286;2023-02-26T16:30:25;102868.38;;;13.47;73.54
23733;BME280;12047;53.450;-2.286;2023-02-26T16:35:49;102879.28;;;13.95;73.56
23733;BME280;12047;53.450;-2.286;2023-02-26T16:41:30;102884.03;;;13.39;75.57
23733;BME280;12047;53.450;-2.286;2023-02-26T16:47:12;102893.66;;;13.54;75.98
23733;BME280;12047;53.450;-2.286;2023-02-26T16:52:30;102894.66;;;13.12;76.02
23733;BME280;12047;53.450;-2.286;2023-02-26T16:57:45;102894.56;;;13.14;76.40
23733;BME280;12047;53.450;-2.286;2023-02-26T17:03:49;102908.47;;;13.71;75.39
23733;BME280;12047;53.450;-2.286;2023-02-26T17:14:59;102905.75;;;13.85;76.95
23733;BME280;12047;53.450;-2.286;2023-02-26T17:20:12;102920.97;;;13.96;75.03
23733;BME280;12047;53.450;-2.286;2023-02-26T17:25:18;102912.97;;;14.21;77.59
23733;BME280;12047;53.450;-2.286;2023-02-26T17:30:29;102921.88;;;13.17;76.53
23733;BME280;12047;53.450;-2.286;2023-02-26T17:35:35;102927.03;;;13.06;78.05
23733;BME280;12047;53.450;-2.286;2023-02-26T17:40:45;102929.66;;;13.47;77.66
23733;BME280;12047;53.450;-2.286;2023-02-26T17:45:55;102926.41;;;13.30;78.03
23733;BME280;12047;53.450;-2.286;2023-02-26T17:50:58;102928.72;;;12.80;78.97
23733;BME280;12047;53.450;-2.286;2023-02-26T17:56:00;102942.09;;;12.93;79.53
23733;BME280;12047;53.450;-2.286;2023-02-26T18:01:04;102945.69;;;13.33;79.39
23733;BME280;12047;53.450;-2.286;2023-02-26T18:06:24;102948.66;;;13.28;80.29
23733;BME280;12047;53.450;-2.286;2023-02-26T18:11:32;102950.72;;;12.97;82.52
23733;BME280;12047;53.450;-2.286;2023-02-26T18:17:01;102957.13;;;13.35;81.28
23733;BME280;12047;53.450;-2.286;2023-02-26T18:22:07;102957.25;;;12.78;82.11
23733;BME280;12047;53.450;-2.286;2023-02-26T18:33:05;102965.44;;;13.02;83.39
23733;BME280;12047;53.450;-2.286;2023-02-26T18:38:13;102972.47;;;13.17;83.55
23733;BME280;12047;53.450;-2.286;2023-02-26T18:43:36;102960.75;;;13.47;82.86
23733;BME280;12047;53.450;-2.286;2023-02-26T18:48:56;102971.22;;;12.39;85.10
23733;BME280;12047;53.450;-2.286;2023-02-26T18:54:00;102980.59;;;13.14;85.28
23733;BME280;12047;53.450;-2.286;2023-02-26T18:59:07;102974.16;;;12.77;86.29
23733;BME280;12047;53.450;-2.286;2023-02-26T19:04:07;102980.31;;;13.33;85.27
23733;BME280;12047;53.450;-2.286;2023-02-26T19:09:08;102987.56;;;12.76;86.89
23733;BME280;12047;53.450;-2.286;2023-02-26T19:14:09;102980.09;;;12.95;88.24
23733;BME280;12047;53.450;-2.286;2023-02-26T19:24:48;102997.13;;;12.21;90.39
23733;BME280;12047;53.450;-2.286;2023-02-26T19:29:52;102996.84;;;12.69;88.96
23733;BME280;12047;53.450;-2.286;2023-02-26T19:35:00;102998.13;;;12.35;90.00
23733;BME280;12047;53.450;-2.286;2023-02-26T19:46:11;102999.19;;;13.16;87.80
23733;BME280;12047;53.450;-2.286;2023-02-26T19:51:21;102999.75;;;13.21;87.32
23733;BME280;12047;53.450;-2.286;2023-02-26T19:56:28;103005.19;;;13.05;88.20
23733;BME280;12047;53.450;-2.286;2023-02-26T20:01:32;103005.78;;;12.39;92.93
23733;BME280;12047;53.450;-2.286;2023-02-26T20:06:35;103005.97;;;12.65;92.26
23733;BME280;12047;53.450;-2.286;2023-02-26T20:11:39;103002.84;;;13.13;92.39
23733;BME280;12047;53.450;-2.286;2023-02-26T20:16:40;103019.34;;;13.06;92.13
23733;BME280;12047;53.450;-2.286;2023-02-26T20:22:04;103021.47;;;12.58;94.46
23733;BME280;12047;53.450;-2.286;2023-02-26T20:27:05;103025.28;;;12.82;95.52
23733;BME280;12047;53.450;-2.286;2023-02-26T20:32:06;103022.78;;;12.93;96.35
23733;BME280;12047;53.450;-2.286;2023-02-26T20:48:15;103033.22;;;12.25;100.00
23733;BME280;12047;53.450;-2.286;2023-02-26T20:53:15;103031.25;;;12.72;99.67
23733;BME280;12047;53.450;-2.286;2023-02-26T20:58:16;103035.31;;;12.91;99.36
23733;BME280;12047;53.450;-2.286;2023-02-26T21:03:42;103045.59;;;13.53;96.99
23733;BME280;12047;53.450;-2.286;2023-02-26T21:08:50;103043.31;;;13.06;100.00
23733;BME280;12047;53.450;-2.286;2023-02-26T21:13:52;103043.13;;;12.94;100.00
23733;BME280;12047;53.450;-2.286;2023-02-26T21:18:57;103044.81;;;12.95;100.00
23733;BME280;12047;53.450;-2.286;2023-02-26T21:24:02;103054.59;;;12.38;100.00
23733;BME280;12047;53.450;-2.286;2023-02-26T21:29:08;103064.22;;;12.55;100.00
23733;BME280;12047;53.450;-2.286;2023-02-26T21:40:09;103061.41;;;11.84;100.00
23733;BME280;12047;53.450;-2.286;2023-02-26T21:45:13;103062.97;;;12.02;100.00
23733;BME280;12047;53.450;-2.286;2023-02-26T21:50:19;103074.75;;;11.67;100.00
23733;BME280;12047;53.450;-2.286;2023-02-26T21:55:37;103064.81;;;12.16;100.00
23733;BME280;12047;53.450;-2.286;2023-02-26T22:00:38;103064.38;;;12.38;100.00
23733;BME280;12047;53.450;-2.286;2023-02-26T22:05:40;103067.25;;;12.49;100.00
23733;BME280;12047;53.450;-2.286;2023-02-26T22:10:41;103071.44;;;12.53;100.00
23733;BME280;12047;53.450;-2.286;2023-02-26T22:15:42;103067.34;;;12.33;100.00
23733;BME280;12047;53.450;-2.286;2023-02-26T22:20:43;103077.34;;;13.01;100.00
23733;BME280;12047;53.450;-2.286;2023-02-26T22:25:48;103080.84;;;12.73;100.00
23733;BME280;12047;53.450;-2.286;2023-02-26T22:30:58;103083.38;;;12.32;100.00
23733;BME280;12047;53.450;-2.286;2023-02-26T22:35:59;103083.28;;;12.33;100.00
23733;BME280;12047;53.450;-2.286;2023-02-26T22:41:22;103094.59;;;12.37;100.00
23733;BME280;12047;53.450;-2.286;2023-02-26T22:46:26;103095.47;;;11.91;100.00
23733;BME280;12047;53.450;-2.286;2023-02-26T22:52:02;103091.19;;;11.89;100.00
23733;BME280;12047;53.450;-2.286;2023-02-26T22:57:41;103094.78;;;11.88;100.00
23733;BME280;12047;53.450;-2.286;2023-02-26T23:08:40;103104.94;;;12.41;100.00
23733;BME280;12047;53.450;-2.286;2023-02-26T23:13:44;103106.28;;;12.48;100.00
23733;BME280;12047;53.450;-2.286;2023-02-26T23:24:25;103123.84;;;11.75;100.00
23733;BME280;12047;53.450;-2.286;2023-02-26T23:29:30;103119.47;;;11.27;100.00
23733;BME280;12047;53.450;-2.286;2023-02-26T23:34:39;103109.47;;;12.98;100.00
23733;BME280;12047;53.450;-2.286;2023-02-26T23:39:43;103112.97;;;12.70;100.00
23733;BME280;12047;53.450;-2.286;2023-02-26T23:45:06;103115.56;;;12.41;100.00
23733;BME280;12047;53.450;-2.286;2023-02-26T23:56:17;103128.03;;;11.64;100.00
